createdAt,value
2019-04-21T00:00:44.710Z,47.27
2019-04-21T00:03:18.111Z,55.53
2019-04-21T00:06:04.631Z,47.30
2019-04-21T00:08:37.537Z,51.30
2019-04-21T00:11:12.422Z,41.93
2019-04-21T00:13:27.962Z,51.30
2019-04-21T00:15:53.181Z,39.73
2019-04-21T00:18:46.873Z,44.13
2019-04-21T00:21:15.218Z,34.73
2019-04-21T00:23:55.357Z,33.60
2019-04-21T00:26:23.804Z,34.60
2019-04-21T00:29:05.071Z,38.83
2019-04-21T00:31:24.763Z,35.20
2019-04-21T00:33:42.654Z,36.27
2019-04-21T00:36:15.936Z,32.47
2019-04-21T00:39:06.876Z,29.77
2019-04-21T00:41:29.859Z,33.60
2019-04-21T00:43:55.733Z,28.10
2019-04-21T00:46:29.257Z,30.03
2019-04-21T00:49:00.368Z,32.40
2019-04-21T00:51:40.509Z,32.20
2019-04-21T00:54:13.104Z,26.63
2019-04-21T00:56:45.529Z,28.73
2019-04-21T00:59:05.706Z,25.63
2019-04-21T01:01:38.050Z,22.63
2019-04-21T01:04:09.939Z,23.37
2019-04-21T01:06:43.488Z,17.17
2019-04-21T01:09:11.761Z,20.23
2019-04-21T01:11:44.244Z,18.17
2019-04-21T01:14:17.907Z,17.90
2019-04-21T01:16:48.142Z,20.50
2019-04-21T01:19:10.949Z,15.00
2019-04-21T01:21:20.959Z,18.90
2019-04-21T01:23:50.775Z,15.80
2019-04-21T01:26:32.767Z,15.73
2019-04-21T01:29:05.432Z,18.67
2019-04-21T01:31:37.590Z,17.30
2019-04-21T01:34:15.047Z,16.67
2019-04-21T01:36:38.633Z,16.67
2019-04-21T01:39:13.483Z,13.90
2019-04-21T01:41:46.294Z,15.23
2019-04-21T01:44:22.724Z,14.37
2019-04-21T01:46:42.808Z,16.00
2019-04-21T01:49:07.928Z,16.73
2019-04-21T01:51:57.938Z,14.60
2019-04-21T01:54:23.795Z,16.27
2019-04-21T01:56:55.670Z,15.27
2019-04-21T01:59:29.583Z,17.10
2019-04-21T02:02:08.104Z,20.27
2019-04-21T02:04:38.394Z,17.27
2019-04-21T02:07:07.401Z,19.43
2019-04-21T02:09:37.978Z,18.63
2019-04-21T02:12:10.558Z,16.80
2019-04-21T02:14:46.130Z,19.13
2019-04-21T02:17:14.519Z,18.43
2019-04-21T02:19:37.606Z,18.03
2019-04-21T02:22:04.837Z,17.73
2019-04-21T02:24:53.378Z,20.57
2019-04-21T02:27:16.078Z,14.97
2019-04-21T02:29:48.687Z,16.93
2019-04-21T02:35:12.408Z,17.20
2019-04-21T02:39:57.395Z,16.57
2019-04-21T02:42:27.684Z,18.80
2019-04-21T02:45:03.857Z,19.03
2019-04-21T02:47:40.628Z,17.90
2019-04-21T02:52:31.951Z,15.63
2019-04-21T02:54:55.650Z,19.27
2019-04-21T03:02:40.667Z,18.30
2019-04-21T03:07:52.065Z,19.47
2019-04-21T03:10:18.357Z,16.43
2019-04-21T03:12:45.885Z,20.87
2019-04-21T03:17:48.764Z,18.50
2019-04-21T03:20:18.378Z,17.47
2019-04-21T03:22:51.269Z,21.50
2019-04-21T03:38:00.267Z,18.70
2019-04-21T03:42:47.997Z,20.90
2019-04-21T03:45:23.698Z,16.33
2019-04-21T03:52:53.273Z,19.43
2019-04-21T04:03:23.555Z,16.43
2019-04-21T04:06:01.165Z,20.40
2019-04-21T04:08:44.747Z,18.63
2019-04-21T04:11:12.314Z,20.83
2019-04-21T04:13:36.775Z,15.73
2019-04-21T04:16:05.734Z,16.77
2019-04-21T04:18:39.438Z,22.43
2019-04-21T04:21:10.195Z,18.83
2019-04-21T04:26:02.761Z,17.77
2019-04-21T04:28:43.918Z,18.57
2019-04-21T04:31:05.656Z,25.07
2019-04-21T04:36:31.636Z,20.47
2019-04-21T04:41:24.962Z,19.90
2019-04-21T04:43:39.063Z,18.13
2019-04-21T04:48:35.281Z,20.30
2019-04-21T04:53:48.855Z,20.63
2019-04-21T04:56:12.321Z,16.97
2019-04-21T04:59:10.779Z,17.70
2019-04-21T05:01:26.764Z,18.70
2019-04-21T05:06:37.269Z,18.83
2019-04-21T05:11:39.798Z,17.93
2019-04-21T05:13:58.085Z,18.87
2019-04-21T05:16:36.649Z,23.80
2019-04-21T05:21:30.188Z,19.30
2019-04-21T05:23:48.513Z,19.63
2019-04-21T05:26:09.899Z,24.53
2019-04-21T05:28:42.015Z,19.10
2019-04-21T05:31:19.876Z,19.60
2019-04-21T05:34:03.035Z,19.83
2019-04-21T05:36:34.335Z,21.03
2019-04-21T05:39:18.805Z,24.13
2019-04-21T05:41:45.261Z,24.17
2019-04-21T05:44:27.792Z,21.83
2019-04-21T05:47:11.226Z,20.33
2019-04-21T05:49:26.486Z,22.37
2019-04-21T05:51:58.355Z,17.97
2019-04-21T05:54:39.024Z,20.47
2019-04-21T05:57:05.904Z,24.73
2019-04-21T05:59:35.813Z,21.90
2019-04-21T06:02:13.942Z,19.33
2019-04-21T06:05:01.973Z,24.93
2019-04-21T06:07:13.958Z,20.83
2019-04-21T06:09:46.802Z,21.07
2019-04-21T06:12:08.661Z,21.40
2019-04-21T06:14:45.006Z,19.63
2019-04-21T06:17:19.333Z,21.57
2019-04-21T06:19:49.635Z,19.77
2019-04-21T06:22:07.671Z,20.03
2019-04-21T06:25:06.934Z,16.10
2019-04-21T06:27:19.276Z,20.97
2019-04-21T06:29:43.662Z,22.67
2019-04-21T06:32:30.368Z,21.50
2019-04-21T06:35:01.138Z,22.60
2019-04-21T06:37:39.070Z,19.90
2019-04-21T06:40:03.151Z,25.47
2019-04-21T06:42:14.767Z,19.00
2019-04-21T06:44:53.776Z,21.77
2019-04-21T06:47:25.650Z,20.87
2019-04-21T06:49:42.795Z,22.10
2019-04-21T06:52:42.314Z,18.10
2019-04-21T06:57:21.753Z,17.37
2019-04-21T06:59:45.243Z,17.87
2019-04-21T07:02:36.262Z,14.67
2019-04-21T07:07:18.683Z,17.97
2019-04-21T07:09:56.961Z,21.50
2019-04-21T07:12:19.007Z,18.27
2019-04-21T07:14:54.681Z,14.67
2019-04-21T07:17:24.324Z,20.20
2019-04-21T07:19:55.178Z,16.27
2019-04-21T07:22:24.501Z,16.10
2019-04-21T07:25:00.300Z,15.80
2019-04-21T07:29:58.324Z,19.27
2019-04-21T07:32:27.793Z,16.50
2019-04-21T07:34:57.830Z,14.37
2019-04-21T07:37:23.981Z,12.33
2019-04-21T07:39:57.337Z,15.10
2019-04-21T07:42:18.624Z,16.47
2019-04-21T07:44:55.326Z,15.47
2019-04-21T07:47:27.178Z,14.20
2019-04-21T07:50:00.619Z,16.60
2019-04-21T07:52:42.980Z,15.13
2019-04-21T07:55:22.083Z,11.50
2019-04-21T07:57:35.454Z,18.13
2019-04-21T08:02:43.754Z,11.97
2019-04-21T08:05:16.061Z,13.13
2019-04-21T08:10:13.962Z,15.13
2019-04-21T08:12:37.957Z,14.57
2019-04-21T08:15:15.844Z,10.57
2019-04-21T08:17:42.618Z,10.70
2019-04-21T08:20:13.513Z,10.27
2019-04-21T08:22:47.921Z,10.17
2019-04-21T08:25:14.908Z,15.80
2019-04-21T08:27:50.881Z,14.00
2019-04-21T08:30:14.336Z,9.10
2019-04-21T08:32:51.484Z,13.57
2019-04-21T08:37:43.313Z,9.97
2019-04-21T08:40:16.739Z,11.93
2019-04-21T08:42:49.088Z,10.83
2019-04-21T08:45:25.498Z,10.03
2019-04-21T08:47:45.811Z,11.30
2019-04-21T08:50:15.139Z,9.23
2019-04-21T08:52:50.673Z,15.70
2019-04-21T08:55:22.554Z,13.13
2019-04-21T08:58:00.377Z,20.67
2019-04-21T09:00:26.373Z,10.57
2019-04-21T09:03:11.730Z,16.90
2019-04-21T09:05:37.845Z,10.03
2019-04-21T09:08:15.268Z,10.70
2019-04-21T09:10:39.922Z,11.57
2019-04-21T09:13:04.993Z,9.03
2019-04-21T09:15:34.882Z,7.83
2019-04-21T09:18:03.049Z,9.17
2019-04-21T09:20:46.163Z,14.27
2019-04-21T09:23:06.714Z,10.00
2019-04-21T09:28:11.207Z,13.27
2019-04-21T09:30:24.072Z,11.07
2019-04-21T09:32:56.100Z,11.53
2019-04-21T09:35:24.124Z,10.97
2019-04-21T09:37:58.849Z,8.67
2019-04-21T09:40:30.179Z,8.17
2019-04-21T09:42:59.510Z,8.93
2019-04-21T09:45:43.614Z,10.63
2019-04-21T09:48:17.051Z,9.50
2019-04-21T09:50:43.389Z,12.23
2019-04-21T09:53:20.915Z,11.53
2019-04-21T09:55:50.543Z,6.73
2019-04-21T09:58:21.728Z,8.70
2019-04-21T10:00:53.800Z,14.17
2019-04-21T10:03:16.310Z,18.37
2019-04-21T10:05:45.215Z,12.10
2019-04-21T10:08:14.509Z,10.47
2019-04-21T10:10:44.453Z,9.40
2019-04-21T10:13:13.308Z,9.53
2019-04-21T10:15:44.060Z,8.57
2019-04-21T10:18:15.132Z,18.87
2019-04-21T10:20:44.842Z,13.63
2019-04-21T10:23:13.696Z,10.90
2019-04-21T10:25:42.858Z,11.83
2019-04-21T10:28:12.789Z,11.73
2019-04-21T10:30:42.626Z,11.50
2019-04-21T10:33:12.530Z,9.03
2019-04-21T10:35:41.478Z,9.87
2019-04-21T10:38:20.500Z,12.60
2019-04-21T10:40:41.419Z,10.27
2019-04-21T10:43:12.404Z,11.10
2019-04-21T10:45:41.081Z,9.67
2019-04-21T10:48:10.804Z,9.00
2019-04-21T10:50:41.064Z,13.07
2019-04-21T10:53:18.690Z,11.20
2019-04-21T10:56:01.483Z,12.97
2019-04-21T10:58:22.688Z,12.87
2019-04-21T11:00:54.152Z,11.20
2019-04-21T11:03:25.118Z,9.03
2019-04-21T11:05:58.904Z,7.63
2019-04-21T11:08:32.580Z,11.53
2019-04-21T11:10:58.342Z,9.17
2019-04-21T11:13:28.317Z,16.40
2019-04-21T11:15:57.303Z,9.13
2019-04-21T11:18:26.080Z,14.30
2019-04-21T11:20:55.258Z,8.90
2019-04-21T11:23:25.027Z,16.57
2019-04-21T11:25:53.979Z,17.73
2019-04-21T11:28:22.985Z,10.53
2019-04-21T11:30:53.088Z,13.67
2019-04-21T11:33:22.838Z,11.00
2019-04-21T11:35:53.066Z,15.47
2019-04-21T11:38:57.081Z,13.47
2019-04-21T11:41:11.818Z,9.87
2019-04-21T11:43:41.345Z,12.00
2019-04-21T11:46:10.833Z,16.63
2019-04-21T11:48:40.009Z,13.73
2019-04-21T11:51:09.028Z,10.77
2019-04-21T11:53:39.116Z,14.87
2019-04-21T11:56:09.013Z,15.70
2019-04-21T11:58:37.981Z,11.00
2019-04-21T12:01:07.683Z,12.30
2019-04-21T12:03:37.745Z,10.93
2019-04-21T12:06:06.668Z,9.63
2019-04-21T12:08:42.281Z,10.40
2019-04-21T12:11:07.266Z,12.70
2019-04-21T12:13:36.255Z,12.23
2019-04-21T12:16:05.463Z,11.03
2019-04-21T12:18:34.353Z,15.27
2019-04-21T12:21:03.326Z,13.27
2019-04-21T12:23:32.373Z,18.17
2019-04-21T12:26:01.496Z,11.37
2019-04-21T12:28:30.483Z,11.77
2019-04-21T12:31:00.184Z,15.07
2019-04-21T12:33:34.166Z,12.30
2019-04-21T12:36:04.007Z,11.23
2019-04-21T12:38:42.684Z,13.73
2019-04-21T12:41:04.540Z,13.80
2019-04-21T12:43:34.778Z,8.17
2019-04-21T12:46:04.300Z,10.33
2019-04-21T12:48:33.818Z,10.30
2019-04-21T12:51:03.879Z,8.37
2019-04-21T12:53:33.967Z,7.50
2019-04-21T12:56:02.843Z,10.57
2019-04-21T12:58:31.584Z,9.53
2019-04-21T13:01:00.961Z,11.03
2019-04-21T13:03:30.381Z,15.17
2019-04-21T13:05:59.185Z,8.60
2019-04-21T13:08:29.195Z,10.03
2019-04-21T13:10:58.331Z,10.10
2019-04-21T13:13:28.157Z,12.07
2019-04-21T13:15:57.712Z,10.03
2019-04-21T13:18:27.050Z,9.33
2019-04-21T13:20:56.097Z,14.70
2019-04-21T13:23:24.975Z,20.03
2019-04-21T13:25:54.120Z,7.83
2019-04-21T13:28:23.037Z,10.40
2019-04-21T13:30:51.718Z,9.33
2019-04-21T13:33:20.970Z,8.03
2019-04-21T13:35:50.893Z,9.43
2019-04-21T13:38:31.036Z,8.17
2019-04-21T13:41:11.917Z,10.10
2019-04-21T13:43:25.313Z,17.00
2019-04-21T13:45:54.150Z,8.40
2019-04-21T13:48:24.278Z,12.93
2019-04-21T13:50:53.501Z,9.80
2019-04-21T13:53:22.759Z,8.53
2019-04-21T13:55:52.897Z,13.47
2019-04-21T13:58:22.126Z,11.47
2019-04-21T14:00:52.377Z,8.03
2019-04-21T14:03:23.429Z,10.10
2019-04-21T14:05:51.785Z,12.27
2019-04-21T14:08:21.031Z,13.10
2019-04-21T14:10:51.402Z,11.17
2019-04-21T14:13:20.472Z,10.83
2019-04-21T14:15:51.632Z,10.17
2019-04-21T14:18:20.625Z,11.83
2019-04-21T14:20:49.478Z,11.03
2019-04-21T14:23:28.636Z,9.77
2019-04-21T14:25:49.978Z,13.50
2019-04-21T14:28:19.899Z,14.83
2019-04-21T14:30:50.337Z,9.60
2019-04-21T14:33:20.469Z,10.67
2019-04-21T14:35:50.629Z,7.83
2019-04-21T14:38:20.584Z,7.50
2019-04-21T14:40:50.352Z,11.03
2019-04-21T14:43:20.422Z,14.03
2019-04-21T14:45:52.615Z,20.80
2019-04-21T14:48:39.408Z,9.90
2019-04-21T14:51:11.159Z,9.77
2019-04-21T14:54:01.740Z,8.90
2019-04-21T14:56:31.301Z,10.17
2019-04-21T14:59:01.324Z,8.00
2019-04-21T15:01:31.541Z,10.57
2019-04-21T15:04:01.550Z,10.43
2019-04-21T15:06:31.552Z,9.40
2019-04-21T15:09:00.878Z,10.67
2019-04-21T15:11:29.919Z,10.67
2019-04-21T15:13:59.783Z,12.13
2019-04-21T15:16:29.095Z,14.47
2019-04-21T15:18:58.905Z,11.10
2019-04-21T15:21:29.014Z,8.50
2019-04-21T15:23:58.173Z,13.13
2019-04-21T15:26:28.334Z,11.97
2019-04-21T15:28:57.223Z,10.00
2019-04-21T15:31:30.247Z,13.23
2019-04-21T15:33:57.076Z,11.23
2019-04-21T15:36:27.109Z,14.03
2019-04-21T15:38:56.178Z,11.10
2019-04-21T15:41:24.997Z,10.63
2019-04-21T15:43:54.378Z,12.40
2019-04-21T15:46:24.728Z,11.87
2019-04-21T15:48:55.030Z,12.47
2019-04-21T15:51:23.988Z,9.10
2019-04-21T15:53:52.965Z,11.10
2019-04-21T15:56:26.860Z,11.87
2019-04-21T15:59:01.016Z,11.07
2019-04-21T16:01:40.778Z,9.93
2019-04-21T16:04:10.691Z,10.37
2019-04-21T16:06:39.731Z,14.70
2019-04-21T16:09:16.136Z,12.83
2019-04-21T16:11:40.180Z,31.93
2019-04-21T16:14:10.165Z,19.50
2019-04-21T16:16:39.278Z,40.60
2019-04-21T16:19:08.307Z,13.47
2019-04-21T16:21:40.599Z,22.67
2019-04-21T16:24:08.735Z,19.43
2019-04-21T16:26:38.429Z,18.00
2019-04-21T16:29:07.230Z,17.67
2019-04-21T16:31:36.365Z,20.57
2019-04-21T16:34:05.228Z,34.97
2019-04-21T16:36:33.972Z,22.60
2019-04-21T16:39:02.744Z,19.87
2019-04-21T16:41:32.070Z,14.13
2019-04-21T16:44:01.018Z,15.17
2019-04-21T16:46:29.767Z,18.87
2019-04-21T16:48:59.908Z,14.07
2019-04-21T16:51:28.830Z,14.00
2019-04-21T16:53:59.872Z,12.73
2019-04-21T16:56:31.130Z,11.87
2019-04-21T16:59:02.807Z,14.47
2019-04-21T17:01:32.426Z,15.67
2019-04-21T17:04:02.346Z,19.23
2019-04-21T17:06:31.423Z,14.20
2019-04-21T17:09:00.958Z,20.07
2019-04-21T17:11:34.704Z,18.37
2019-04-21T17:14:00.665Z,24.07
2019-04-21T17:17:00.323Z,24.40
2019-04-21T17:19:12.786Z,22.97
2019-04-21T17:21:30.723Z,17.73
2019-04-21T17:24:02.001Z,18.03
2019-04-21T17:26:31.369Z,19.13
2019-04-21T17:29:02.549Z,18.63
2019-04-21T17:31:31.405Z,21.63
2019-04-21T17:34:09.519Z,19.70
2019-04-21T17:36:31.038Z,19.80
2019-04-21T17:39:00.171Z,16.10
2019-04-21T17:41:36.427Z,21.50
2019-04-21T17:44:00.376Z,20.43
2019-04-21T17:46:38.624Z,17.77
2019-04-21T17:49:01.016Z,19.33
2019-04-21T17:51:55.117Z,20.33
2019-04-21T17:54:32.221Z,19.10
2019-04-21T17:57:16.246Z,26.37
2019-04-21T18:02:23.518Z,20.63
2019-04-21T18:04:49.398Z,22.93
2019-04-21T18:07:29.064Z,22.03
2019-04-21T18:10:03.391Z,24.80
2019-04-21T18:12:24.950Z,25.60
2019-04-21T18:14:53.090Z,22.67
2019-04-21T18:17:14.055Z,29.20
2019-04-21T18:19:46.998Z,23.40
2019-04-21T18:22:37.104Z,20.50
2019-04-21T18:25:07.060Z,21.90
2019-04-21T18:27:34.439Z,31.40
2019-04-21T18:30:06.468Z,24.43
2019-04-21T18:32:39.176Z,20.60
2019-04-21T18:35:17.073Z,22.90
2019-04-21T18:38:08.368Z,19.80
2019-04-21T18:40:34.831Z,28.07
2019-04-21T18:43:38.360Z,28.70
2019-04-21T18:46:04.807Z,24.83
2019-04-21T18:48:31.541Z,23.87
2019-04-21T18:51:04.649Z,21.03
2019-04-21T18:53:46.197Z,32.87
2019-04-21T18:56:05.672Z,40.80
2019-04-21T18:58:30.877Z,41.43
2019-04-21T19:01:07.545Z,37.03
2019-04-21T19:03:38.943Z,33.93
2019-04-21T19:06:08.782Z,32.13
2019-04-21T19:08:53.400Z,35.80
2019-04-21T19:11:18.883Z,34.20
2019-04-21T19:14:31.695Z,38.10
2019-04-21T19:19:38.258Z,37.00
2019-04-21T19:21:42.393Z,43.53
2019-04-21T19:24:18.563Z,39.03
2019-04-21T19:29:19.697Z,39.97
2019-04-21T19:31:46.311Z,39.00
2019-04-21T19:34:07.192Z,40.50
2019-04-21T19:36:28.938Z,36.57
2019-04-21T19:39:06.502Z,43.53
2019-04-21T19:41:41.143Z,46.97
2019-04-21T19:44:14.256Z,60.47
2019-04-21T19:46:43.532Z,55.37
2019-04-21T19:49:22.739Z,53.57
2019-04-21T19:51:40.564Z,62.87
2019-04-21T19:54:09.345Z,60.33
2019-04-21T19:56:30.250Z,65.80
2019-04-21T19:58:59.132Z,55.20
2019-04-21T20:01:27.977Z,63.17
2019-04-21T20:04:00.530Z,62.27
2019-04-21T20:06:44.007Z,54.27
2019-04-21T20:09:19.031Z,59.47
2019-04-21T20:11:42.628Z,56.33
2019-04-21T20:16:44.175Z,50.47
2019-04-21T20:19:05.954Z,50.33
2019-04-21T20:21:32.821Z,43.67
2019-04-21T20:24:07.511Z,32.53
2019-04-21T20:26:39.099Z,34.00
2019-04-21T20:29:20.812Z,30.80
2019-04-21T20:31:46.970Z,28.27
2019-04-21T20:34:28.371Z,26.90
2019-04-21T20:36:56.914Z,28.53
2019-04-21T20:39:12.887Z,19.73
2019-04-21T20:41:49.630Z,23.83
2019-04-21T20:44:28.206Z,21.57
2019-04-21T20:46:54.530Z,20.70
2019-04-21T20:49:19.227Z,22.43
2019-04-21T20:52:01.712Z,19.97
2019-04-21T20:54:25.704Z,20.27
2019-04-21T20:57:00.464Z,18.10
2019-04-21T20:59:25.329Z,24.33
2019-04-21T21:01:55.176Z,19.47
2019-04-21T21:04:22.996Z,16.40
2019-04-21T21:07:01.419Z,18.60
2019-04-21T21:09:25.637Z,20.67
2019-04-21T21:12:15.031Z,19.17
2019-04-21T21:14:27.970Z,18.33
2019-04-21T21:17:03.269Z,21.47
2019-04-21T21:19:35.139Z,19.97
2019-04-21T21:21:56.369Z,20.80
2019-04-21T21:24:36.551Z,22.40
2019-04-21T21:26:58.092Z,17.63
2019-04-21T21:32:08.493Z,19.30
2019-04-21T21:34:32.993Z,19.70
2019-04-21T21:37:15.895Z,19.50
2019-04-21T21:39:40.421Z,17.90
2019-04-21T21:41:50.990Z,20.17
2019-04-21T21:44:21.261Z,17.60
2019-04-21T21:47:03.721Z,21.53
2019-04-21T21:49:34.911Z,17.00
2019-04-21T21:52:01.973Z,17.70
2019-04-21T21:54:19.995Z,20.27
2019-04-21T21:56:48.695Z,22.70
2019-04-21T21:59:22.814Z,18.27
2019-04-21T22:01:52.233Z,16.07
2019-04-21T22:04:24.829Z,15.93
2019-04-21T22:06:57.558Z,15.60
2019-04-21T22:09:19.476Z,21.17
2019-04-21T22:11:53.561Z,16.97
2019-04-21T22:14:25.836Z,18.27
2019-04-21T22:17:07.685Z,16.07
2019-04-21T22:19:41.716Z,15.27
2019-04-21T22:22:09.738Z,17.73
2019-04-21T22:24:38.895Z,18.80
2019-04-21T22:26:52.421Z,17.70
2019-04-21T22:29:21.458Z,18.33
2019-04-21T22:31:52.761Z,16.50
2019-04-21T22:34:27.700Z,17.20
2019-04-21T22:37:01.287Z,16.60
2019-04-21T22:39:43.669Z,20.30
2019-04-21T22:42:01.900Z,18.93
2019-04-21T22:44:22.756Z,21.67
2019-04-21T22:47:01.461Z,23.47
2019-04-21T22:49:23.741Z,20.17
2019-04-21T22:51:53.780Z,22.53
2019-04-21T22:54:29.614Z,18.33
2019-04-21T22:57:01.598Z,22.87
2019-04-21T22:59:24.910Z,20.63
2019-04-21T23:01:55.776Z,23.37
2019-04-21T23:04:32.611Z,19.67
2019-04-21T23:07:00.054Z,21.27
2019-04-21T23:09:26.662Z,28.87
2019-04-21T23:11:56.628Z,22.60
2019-04-21T23:14:25.904Z,21.50
2019-04-21T23:17:04.432Z,22.60
2019-04-21T23:19:38.872Z,20.60
2019-04-21T23:22:14.620Z,22.30
2019-04-21T23:24:45.540Z,17.97
2019-04-21T23:27:11.788Z,19.40
2019-04-21T23:29:52.452Z,21.03
2019-04-21T23:32:13.128Z,21.63
2019-04-21T23:34:33.776Z,21.60
2019-04-21T23:37:06.606Z,18.67
2019-04-21T23:39:31.970Z,22.27
2019-04-21T23:42:02.384Z,20.13
2019-04-21T23:44:32.931Z,21.10
2019-04-21T23:47:05.339Z,20.70
2019-04-21T23:49:43.250Z,22.57
2019-04-21T23:52:06.897Z,20.23
2019-04-21T23:54:33.411Z,18.87
2019-04-21T23:57:10.995Z,21.27
2019-04-21T23:59:40.858Z,20.77
